createdAt,value
2019-03-19T00:00:17.815Z,100822.11
2019-03-19T00:03:25.838Z,100817.34
2019-03-19T00:06:32.146Z,100821.36
2019-03-19T00:09:39.403Z,100826.81
2019-03-19T00:12:45.774Z,100820.70
2019-03-19T00:15:52.069Z,100833.08
2019-03-19T00:18:58.707Z,100838.91
2019-03-19T00:22:05.185Z,100842.45
2019-03-19T00:25:13.205Z,100845.23
2019-03-19T00:28:20.030Z,100854.97
2019-03-19T00:31:26.485Z,100846.89
2019-03-19T00:34:33.403Z,100851.39
2019-03-19T00:37:39.830Z,100866.80
2019-03-19T00:40:46.216Z,100871.68
2019-03-19T00:43:52.573Z,100876.47
2019-03-19T00:46:58.815Z,100880.42
2019-03-19T00:50:05.769Z,100888.84
2019-03-19T00:53:12.263Z,100896.37
2019-03-19T00:56:18.813Z,100905.72
2019-03-19T00:59:25.138Z,100904.00
2019-03-19T01:02:31.547Z,100906.28
2019-03-19T01:05:38.002Z,100917.05
2019-03-19T01:08:44.576Z,100923.47
2019-03-19T01:11:51.018Z,100936.60
2019-03-19T01:14:57.453Z,100935.97
2019-03-19T01:18:03.823Z,100938.25
2019-03-19T01:21:10.176Z,100938.52
2019-03-19T01:24:18.023Z,100955.36
2019-03-19T01:27:24.730Z,100965.14
2019-03-19T01:30:31.253Z,100968.84
2019-03-19T01:33:37.617Z,100973.92
2019-03-19T01:36:43.914Z,100976.61
2019-03-19T01:39:50.280Z,100982.03
2019-03-19T01:42:56.622Z,101005.64
2019-03-19T01:46:03.095Z,101000.31
2019-03-19T01:49:09.545Z,100999.06
2019-03-19T01:52:18.235Z,100997.66
2019-03-19T01:55:25.616Z,101010.44
2019-03-19T01:58:32.095Z,101016.96
2019-03-19T02:01:38.469Z,101017.91
2019-03-19T02:04:45.275Z,101028.66
2019-03-19T02:07:51.878Z,101038.62
2019-03-19T02:10:58.296Z,101045.99
2019-03-19T02:14:04.638Z,101055.43
2019-03-19T02:17:12.731Z,101057.27
2019-03-19T02:20:19.280Z,101068.31
2019-03-19T02:23:25.738Z,101069.45
2019-03-19T02:26:32.389Z,101074.08
2019-03-19T02:29:39.552Z,101079.81
2019-03-19T02:32:45.968Z,101078.92
2019-03-19T02:35:52.432Z,101073.95
2019-03-19T02:38:58.772Z,101080.66
2019-03-19T02:42:05.217Z,101083.38
2019-03-19T02:45:12.822Z,101092.95
2019-03-19T02:48:19.359Z,101093.02
2019-03-19T02:51:25.760Z,101095.55
2019-03-19T02:54:32.297Z,101103.63
2019-03-19T02:57:38.628Z,101109.56
2019-03-19T03:00:45.071Z,101112.39
2019-03-19T03:03:51.422Z,101118.98
2019-03-19T03:06:58.207Z,101132.70
2019-03-19T03:10:05.106Z,101139.42
2019-03-19T03:13:13.113Z,101133.42
2019-03-19T03:16:19.374Z,101148.34
2019-03-19T03:19:25.727Z,101158.80
2019-03-19T03:22:33.737Z,101159.43
2019-03-19T03:25:43.220Z,101174.46
2019-03-19T03:28:50.250Z,101179.44
2019-03-19T03:31:56.922Z,101182.81
2019-03-19T03:35:03.381Z,101194.69
2019-03-19T03:38:09.764Z,101197.59
2019-03-19T03:41:16.207Z,101196.41
2019-03-19T03:44:22.602Z,101204.52
2019-03-19T03:47:28.889Z,101135.79
2019-03-19T03:50:35.434Z,101216.41
2019-03-19T03:53:41.772Z,101214.78
2019-03-19T03:57:01.318Z,101230.20
2019-03-19T03:59:56.373Z,101236.16
2019-03-19T04:03:02.817Z,101236.16
2019-03-19T04:06:09.578Z,101246.17
2019-03-19T04:09:16.111Z,101246.05
2019-03-19T04:12:22.634Z,101259.20
2019-03-19T04:15:28.994Z,101256.84
2019-03-19T04:18:35.327Z,101262.91
2019-03-19T04:21:41.835Z,101262.54
2019-03-19T04:24:48.306Z,101265.02
2019-03-19T04:27:54.690Z,101263.31
2019-03-19T04:31:01.405Z,101277.28
2019-03-19T04:34:08.034Z,101272.23
2019-03-19T04:37:14.520Z,101279.98
2019-03-19T04:40:21.050Z,101282.09
2019-03-19T04:43:27.439Z,101287.83
2019-03-19T04:46:33.842Z,101296.83
2019-03-19T04:49:40.480Z,101303.14
2019-03-19T04:52:46.815Z,101302.33
2019-03-19T04:55:53.158Z,101317.27
2019-03-19T04:58:59.958Z,101328.02
2019-03-19T05:02:06.352Z,101330.11
2019-03-19T05:05:14.423Z,101339.56
2019-03-19T05:08:22.444Z,101339.84
2019-03-19T05:11:28.721Z,101344.89
2019-03-19T05:14:35.295Z,101351.15
2019-03-19T05:17:41.980Z,101357.22
2019-03-19T05:20:48.402Z,101355.97
2019-03-19T05:23:54.723Z,101371.67
2019-03-19T05:27:01.091Z,101373.09
2019-03-19T05:30:08.391Z,101383.03
2019-03-19T05:33:14.883Z,101389.20
2019-03-19T05:36:21.477Z,101380.58
2019-03-19T05:39:27.943Z,101399.55
2019-03-19T05:42:34.441Z,101406.05
2019-03-19T05:45:41.081Z,101405.67
2019-03-19T05:48:47.454Z,101413.33
2019-03-19T05:51:53.821Z,101426.54
2019-03-19T05:55:00.422Z,101429.37
2019-03-19T05:58:06.884Z,101426.34
2019-03-19T06:01:13.847Z,101425.28
2019-03-19T06:04:20.260Z,101427.23
2019-03-19T06:07:26.768Z,101429.03
2019-03-19T06:10:34.198Z,101439.05
2019-03-19T06:13:40.786Z,101390.62
2019-03-19T06:16:47.199Z,101455.33
2019-03-19T06:19:53.861Z,101460.77
2019-03-19T06:23:00.107Z,101469.95
2019-03-19T06:26:06.472Z,101477.16
2019-03-19T06:29:12.965Z,101483.67
2019-03-19T06:32:19.543Z,101494.08
2019-03-19T06:35:26.312Z,101499.09
2019-03-19T06:38:35.325Z,101509.41
2019-03-19T06:41:41.747Z,101510.81
2019-03-19T06:44:48.222Z,101524.02
2019-03-19T06:47:54.522Z,101522.72
2019-03-19T06:51:00.953Z,101534.64
2019-03-19T06:54:07.275Z,101536.52
2019-03-19T06:57:15.482Z,101541.16
2019-03-19T07:00:22.291Z,101543.20
2019-03-19T07:03:28.689Z,101558.52
2019-03-19T07:06:35.153Z,101561.38
2019-03-19T07:09:41.526Z,101566.20
2019-03-19T07:12:47.872Z,101565.89
2019-03-19T07:15:54.423Z,101573.30
2019-03-19T07:19:01.898Z,101574.46
2019-03-19T07:22:08.307Z,101589.78
2019-03-19T07:25:14.789Z,101546.38
2019-03-19T07:28:22.224Z,101600.58
2019-03-19T07:31:31.112Z,101603.39
2019-03-19T07:34:37.313Z,101619.06
2019-03-19T07:37:45.321Z,101612.34
2019-03-19T07:40:51.939Z,101605.70
2019-03-19T07:43:58.353Z,101619.31
2019-03-19T07:47:04.836Z,101613.94
2019-03-19T07:50:12.664Z,101635.59
2019-03-19T07:53:18.926Z,101637.69
2019-03-19T07:56:25.414Z,101651.11
2019-03-19T07:59:31.771Z,101658.47
2019-03-19T08:02:38.127Z,101660.00
2019-03-19T08:05:44.495Z,101668.21
2019-03-19T08:08:50.834Z,101669.11
2019-03-19T08:11:57.359Z,101673.59
2019-03-19T08:15:03.700Z,101676.45
2019-03-19T08:18:10.093Z,101673.69
2019-03-19T08:21:16.522Z,101690.08
2019-03-19T08:24:22.963Z,101693.84
2019-03-19T08:27:29.404Z,101695.94
2019-03-19T08:30:35.835Z,101689.62
2019-03-19T08:33:42.236Z,101717.36
2019-03-19T08:36:48.614Z,101714.52
2019-03-19T08:39:56.807Z,101727.73
2019-03-19T08:43:03.639Z,101727.99
2019-03-19T08:46:10.005Z,101722.81
2019-03-19T08:49:17.993Z,101725.75
2019-03-19T08:52:24.389Z,101742.41
2019-03-19T08:55:30.827Z,101746.17
2019-03-19T08:58:37.305Z,101755.73
2019-03-19T09:01:43.685Z,101752.45
2019-03-19T09:04:50.116Z,101754.45
2019-03-19T09:07:57.990Z,101774.73
2019-03-19T09:11:04.567Z,101765.44
2019-03-19T09:14:12.495Z,101782.80
2019-03-19T09:17:19.542Z,101777.49
2019-03-19T09:20:26.082Z,101779.65
2019-03-19T09:23:33.293Z,101782.78
2019-03-19T09:26:39.869Z,101789.20
2019-03-19T09:29:46.286Z,101788.79
2019-03-19T09:32:52.729Z,101788.79
2019-03-19T09:35:59.087Z,101800.16
2019-03-19T09:39:08.329Z,101811.36
2019-03-19T09:42:15.054Z,101821.22
2019-03-19T09:45:21.800Z,101825.20
2019-03-19T09:48:28.381Z,101829.64
2019-03-19T09:51:34.795Z,101839.92
2019-03-19T09:54:43.922Z,101840.47
2019-03-19T09:57:50.269Z,101832.33
2019-03-19T10:00:56.772Z,101847.20
2019-03-19T10:04:03.104Z,101847.56
2019-03-19T10:07:09.570Z,101845.37
2019-03-19T10:10:16.229Z,101847.23
2019-03-19T10:13:22.638Z,101859.99
2019-03-19T10:16:29.016Z,101857.12
2019-03-19T10:19:36.329Z,101864.73
2019-03-19T10:22:42.769Z,101869.52
2019-03-19T10:25:49.351Z,101873.14
2019-03-19T10:28:55.815Z,101884.72
2019-03-19T10:32:02.181Z,101882.98
2019-03-19T10:35:10.125Z,101884.50
2019-03-19T10:38:16.490Z,101896.52
2019-03-19T10:41:23.002Z,101904.58
2019-03-19T10:44:31.875Z,101901.02
2019-03-19T10:47:43.456Z,101905.36
2019-03-19T10:50:51.353Z,101909.20
2019-03-19T10:53:57.797Z,101911.68
2019-03-19T10:57:04.130Z,101915.20
2019-03-19T11:00:16.963Z,101909.65
2019-03-19T11:03:23.594Z,101920.53
2019-03-19T11:06:29.972Z,101914.75
2019-03-19T11:09:36.238Z,101914.39
2019-03-19T11:12:42.634Z,101922.48
2019-03-19T11:15:49.237Z,101922.42
2019-03-19T11:18:56.572Z,101928.44
2019-03-19T11:22:02.932Z,101916.61
2019-03-19T11:25:13.272Z,101924.42
2019-03-19T11:28:19.647Z,101931.45
2019-03-19T11:31:26.240Z,101931.44
2019-03-19T11:34:32.663Z,101933.29
2019-03-19T11:37:41.487Z,101938.30
2019-03-19T11:40:47.855Z,101934.64
2019-03-19T11:43:55.524Z,101933.95
2019-03-19T11:47:03.815Z,101936.03
2019-03-19T11:50:19.614Z,101929.02
2019-03-19T11:53:29.608Z,101930.56
2019-03-19T11:56:38.006Z,101941.75
2019-03-19T11:59:44.445Z,101940.77
2019-03-19T12:02:50.830Z,101948.01
2019-03-19T12:05:57.444Z,101947.44
2019-03-19T12:09:08.189Z,101944.70
2019-03-19T12:12:14.638Z,101944.83
2019-03-19T12:15:23.557Z,101956.30
2019-03-19T12:18:30.168Z,101962.28
2019-03-19T12:21:36.622Z,101963.55
2019-03-19T12:24:46.743Z,101968.30
2019-03-19T12:27:56.250Z,101964.06
2019-03-19T12:31:02.602Z,101969.30
2019-03-19T12:34:11.713Z,101964.05
2019-03-19T12:37:18.180Z,101967.44
2019-03-19T12:40:35.973Z,101975.23
2019-03-19T12:43:35.015Z,101984.09
2019-03-19T12:46:43.144Z,101986.80
2019-03-19T12:49:49.729Z,101991.11
2019-03-19T12:52:59.639Z,101984.35
2019-03-19T12:56:06.933Z,101977.50
2019-03-19T12:59:20.420Z,101986.17
2019-03-19T13:02:24.528Z,101982.41
2019-03-19T13:05:30.970Z,101993.02
2019-03-19T13:08:37.461Z,101935.59
2019-03-19T13:11:43.911Z,101997.95
2019-03-19T13:14:50.381Z,102001.69
2019-03-19T13:17:56.776Z,102002.67
2019-03-19T13:21:03.109Z,102013.27
2019-03-19T13:24:10.538Z,102009.82
2019-03-19T13:27:16.982Z,102026.28
2019-03-19T13:30:23.766Z,102026.28
2019-03-19T13:33:30.082Z,102026.96
2019-03-19T13:36:36.427Z,102030.97
2019-03-19T13:39:44.802Z,102022.84
2019-03-19T13:42:51.353Z,102022.84
2019-03-19T13:45:59.504Z,102050.09
2019-03-19T13:49:09.677Z,102039.81
2019-03-19T13:52:16.361Z,102042.19
2019-03-19T13:55:23.084Z,102045.06
2019-03-19T13:58:30.721Z,102063.17
2019-03-19T14:01:37.729Z,102053.78
2019-03-19T14:04:47.662Z,102056.86
2019-03-19T14:07:55.420Z,102070.78
2019-03-19T14:11:01.868Z,102074.42
2019-03-19T14:14:10.784Z,102082.25
2019-03-19T14:17:17.320Z,102075.88
2019-03-19T14:20:23.856Z,102092.78
2019-03-19T14:23:30.339Z,102096.44
2019-03-19T14:26:37.183Z,102095.31
2019-03-19T14:29:45.029Z,102114.91
2019-03-19T14:32:51.374Z,102105.63
2019-03-19T14:35:58.096Z,102121.01
2019-03-19T14:39:09.174Z,102127.97
2019-03-19T14:42:15.613Z,102133.70
2019-03-19T14:45:23.734Z,102138.33
2019-03-19T14:48:30.182Z,102143.93
2019-03-19T14:51:38.098Z,102160.77
2019-03-19T14:54:44.702Z,102146.72
2019-03-19T14:57:51.495Z,102144.47
2019-03-19T15:00:57.932Z,102153.81
2019-03-19T15:04:04.419Z,102157.95
2019-03-19T15:07:10.804Z,102160.18
2019-03-19T15:10:17.500Z,102166.84
2019-03-19T15:13:23.991Z,102165.87
2019-03-19T15:16:30.425Z,102178.87
2019-03-19T15:19:36.766Z,102178.67
2019-03-19T15:22:43.306Z,102179.63
2019-03-19T15:25:49.866Z,102180.34
2019-03-19T15:28:56.345Z,102183.92
2019-03-19T15:32:03.643Z,102183.83
2019-03-19T15:35:11.334Z,102184.12
2019-03-19T15:38:17.823Z,102199.03
2019-03-19T15:41:24.334Z,102203.52
2019-03-19T15:44:30.731Z,102209.89
2019-03-19T15:47:37.198Z,102133.77
2019-03-19T15:50:43.645Z,102210.35
2019-03-19T15:53:50.215Z,102213.72
2019-03-19T15:56:58.303Z,102217.13
2019-03-19T16:00:08.660Z,102224.48
2019-03-19T16:03:15.355Z,102221.61
2019-03-19T16:06:21.751Z,102224.88
2019-03-19T16:09:28.311Z,102221.50
2019-03-19T16:12:34.725Z,102233.15
2019-03-19T16:15:42.881Z,102233.26
2019-03-19T16:18:49.460Z,102238.09
2019-03-19T16:21:57.548Z,102240.91
2019-03-19T16:25:03.937Z,102247.88
2019-03-19T16:28:13.326Z,102253.37
2019-03-19T16:31:19.730Z,102245.62
2019-03-19T16:34:26.142Z,102245.19
2019-03-19T16:37:34.865Z,102257.56
2019-03-19T16:40:42.472Z,102256.29
2019-03-19T16:43:50.399Z,102262.27
2019-03-19T16:47:01.066Z,102265.14
2019-03-19T16:50:08.159Z,102273.25
2019-03-19T16:53:14.725Z,102259.59
2019-03-19T16:56:24.868Z,102266.72
2019-03-19T16:59:31.753Z,102265.31
2019-03-19T17:02:38.571Z,102267.59
2019-03-19T17:05:45.164Z,102273.76
2019-03-19T17:08:51.773Z,102265.03
2019-03-19T17:11:59.698Z,102274.14
2019-03-19T17:15:09.765Z,102273.52
2019-03-19T17:18:16.317Z,102270.89
2019-03-19T17:21:23.670Z,102286.09
2019-03-19T17:24:30.104Z,102291.98
2019-03-19T17:27:39.347Z,102297.33
2019-03-19T17:30:45.797Z,102290.91
2019-03-19T17:33:52.297Z,102295.67
2019-03-19T17:36:58.671Z,102294.63
2019-03-19T17:40:06.308Z,102305.98
2019-03-19T17:43:12.739Z,102308.42
2019-03-19T17:46:21.149Z,102309.08
2019-03-19T17:49:27.720Z,102314.47
2019-03-19T17:52:34.216Z,102317.94
2019-03-19T17:55:40.772Z,102319.45
2019-03-19T17:58:47.195Z,102313.30
2019-03-19T18:01:53.978Z,102316.91
2019-03-19T18:05:00.567Z,102326.57
2019-03-19T18:08:07.151Z,102337.58
2019-03-19T18:11:14.425Z,102342.00
2019-03-19T18:14:20.801Z,102339.64
2019-03-19T18:17:27.350Z,102338.94
2019-03-19T18:20:35.490Z,102345.53
2019-03-19T18:23:41.901Z,102348.48
2019-03-19T18:26:48.248Z,102345.53
2019-03-19T18:29:55.631Z,102352.84
2019-03-19T18:33:02.046Z,102354.37
2019-03-19T18:36:08.461Z,102358.41
2019-03-19T18:39:14.956Z,102365.16
2019-03-19T18:42:24.767Z,102360.14
2019-03-19T18:45:34.442Z,102366.16
2019-03-19T18:48:41.125Z,102366.07
2019-03-19T18:51:47.558Z,102369.97
2019-03-19T18:54:54.100Z,102382.21
2019-03-19T18:58:00.513Z,102316.27
2019-03-19T19:01:08.222Z,102393.46
2019-03-19T19:04:17.472Z,102378.22
2019-03-19T19:07:25.425Z,102382.21
2019-03-19T19:10:31.935Z,102391.08
2019-03-19T19:13:38.331Z,102385.87
2019-03-19T19:16:44.927Z,102386.13
2019-03-19T19:19:51.324Z,102394.35
2019-03-19T19:22:58.361Z,102394.35
2019-03-19T19:26:04.879Z,102396.65
2019-03-19T19:29:12.784Z,102404.13
2019-03-19T19:32:19.448Z,102398.49
2019-03-19T19:35:25.899Z,102397.00
2019-03-19T19:38:32.392Z,102395.56
2019-03-19T19:41:38.841Z,102392.30
2019-03-19T19:44:45.459Z,102400.94
2019-03-19T19:47:51.945Z,102406.48
2019-03-19T19:50:58.493Z,102406.73
2019-03-19T19:54:04.865Z,102399.13
2019-03-19T19:57:11.355Z,102384.98
2019-03-19T20:00:17.860Z,102384.98
2019-03-19T20:03:24.765Z,102401.25
2019-03-19T20:06:31.624Z,102408.11
2019-03-19T20:09:38.362Z,102406.73
2019-03-19T20:12:44.846Z,102402.45
2019-03-19T20:15:52.678Z,102400.89
2019-03-19T20:18:59.009Z,102403.34
2019-03-19T20:22:07.420Z,102407.14
2019-03-19T20:25:13.953Z,102373.59
2019-03-19T20:28:20.503Z,102407.59
2019-03-19T20:31:26.859Z,102412.25
2019-03-19T20:34:33.487Z,102412.98
2019-03-19T20:37:41.463Z,102417.02
2019-03-19T20:40:47.985Z,102412.48
2019-03-19T20:43:54.361Z,102417.52
2019-03-19T20:47:00.678Z,102426.95
2019-03-19T20:50:12.718Z,102412.63
2019-03-19T20:53:19.974Z,102407.12
2019-03-19T20:56:26.854Z,102400.63
2019-03-19T20:59:43.304Z,102401.01
2019-03-19T21:02:52.006Z,102403.94
2019-03-19T21:06:02.196Z,102419.09
2019-03-19T21:09:12.884Z,102420.32
2019-03-19T21:12:22.740Z,102418.48
2019-03-19T21:15:32.420Z,102406.11
2019-03-19T21:18:38.859Z,102415.16
2019-03-19T21:21:46.711Z,102426.63
2019-03-19T21:24:54.787Z,102426.24
2019-03-19T21:28:01.158Z,102419.52
2019-03-19T21:31:08.685Z,102424.03
2019-03-19T21:34:15.377Z,102414.64
2019-03-19T21:37:23.700Z,102413.64
2019-03-19T21:40:31.600Z,102412.52
2019-03-19T21:43:38.001Z,102426.52
2019-03-19T21:46:44.439Z,102423.83
2019-03-19T21:49:51.114Z,102417.47
2019-03-19T21:52:59.325Z,102417.44
2019-03-19T21:56:07.405Z,102417.25
2019-03-19T21:59:13.888Z,102416.13
2019-03-19T22:02:20.455Z,102423.04
2019-03-19T22:05:29.511Z,102422.01
2019-03-19T22:08:37.864Z,102421.65
2019-03-19T22:11:45.008Z,102418.23
2019-03-19T22:14:52.727Z,102424.34
2019-03-19T22:17:59.188Z,102430.22
2019-03-19T22:21:05.587Z,102425.12
2019-03-19T22:24:12.326Z,102426.23
2019-03-19T22:27:19.280Z,102426.16
2019-03-19T22:30:25.810Z,102421.14
2019-03-19T22:33:33.518Z,102420.13
2019-03-19T22:36:41.250Z,102406.77
2019-03-19T22:39:47.709Z,102413.51
2019-03-19T22:42:55.599Z,102418.53
2019-03-19T22:46:02.117Z,102335.20
2019-03-19T22:49:08.491Z,102418.53
2019-03-19T22:52:14.998Z,102416.67
2019-03-19T22:55:29.048Z,102411.91
2019-03-19T22:58:30.936Z,102420.57
2019-03-19T23:01:37.350Z,102421.05
2019-03-19T23:04:44.152Z,102433.13
2019-03-19T23:07:50.576Z,102420.22
2019-03-19T23:10:57.094Z,102428.57
2019-03-19T23:14:03.859Z,102427.48
2019-03-19T23:17:11.253Z,102428.84
2019-03-19T23:20:19.083Z,102430.63
2019-03-19T23:23:26.528Z,102414.13
2019-03-19T23:26:32.887Z,102407.94
2019-03-19T23:29:39.528Z,102411.92
2019-03-19T23:32:46.002Z,102390.95
2019-03-19T23:35:52.524Z,102399.72
2019-03-19T23:39:00.458Z,102399.45
2019-03-19T23:42:10.025Z,102408.33
2019-03-19T23:45:16.600Z,102395.64
2019-03-19T23:48:24.769Z,102410.27
2019-03-19T23:51:31.325Z,102408.71
2019-03-19T23:54:37.934Z,102416.25
2019-03-19T23:57:45.912Z,102403.22
